Latest Weather Observations for Moorabbin Airport

IDV60801

Issued at 6:05 pm EST Wednesday 23 April 2014 (issued every 30 minutes, with the page automatically refreshed every 10 minutes)

About weather observations | Map of weather stations | Latest weather observations for VIC | Other Formats
Station Details ID: 086077 Name: MOORABBIN AIRPORT Lat: -37.98 Lon: 145.10 Height: 12.1 m
Data from the previous 72 hours. | See also: Recent months at Moorabbin Airport
Date/Time
EST
Temp
°C
App
Temp
°C
Dew
Point
Rel
Hum
%
Delta-T
°C
Wind Press
QNH
hPa
Press
MSL
hPa
Rain
since 9 am
mm
Dir
 
Spd
km/h
Gust
km/h
Spd
kts
Gust
kts
23/06:00pm 14.1 13.0 9.9 76 2.2 SE 6 7 3 4 1013.1 1013.0 0.0
23/05:30pm 15.0 14.0 10.2 73 2.5 S 6 9 3 5 1013.4 - 0.0
23/05:00pm 16.0 14.3 9.9 67 3.2 SSW 9 11 5 6 1013.4 - 0.0
23/04:30pm 16.8 15.2 10.2 65 3.5 SSW 9 9 5 5 1013.4 - 0.0
23/04:00pm 17.1 16.0 10.0 63 3.7 SSW 6 7 3 4 1013.5 - 0.0
23/03:30pm 17.2 15.9 9.9 62 3.8 WSW 7 9 4 5 1013.5 - 0.0
23/03:00pm 17.1 15.9 10.2 64 3.7 SW 7 13 4 7 1013.7 1013.6 0.0
23/02:30pm 16.6 15.5 10.5 67 3.2 SSW 7 9 4 5 1013.9 - 0.0
23/02:00pm 16.6 14.6 10.2 66 3.4 SW 11 15 6 8 1014.1 - 0.0
23/01:30pm 16.4 14.4 10.3 67 3.2 WSW 11 17 6 9 1014.6 - 0.0
23/01:00pm 16.3 14.0 10.4 68 3.1 WSW 13 17 7 9 1015.1 - 0.0
23/12:30pm 16.5 14.7 10.8 69 3.0 W 11 17 6 9 1015.6 - 0.0
23/12:00pm 15.8 13.2 10.8 72 2.7 SW 15 20 8 11 1016.1 1016.0 0.0
23/11:30am 16.1 14.6 11.9 76 2.3 SW 11 17 6 9 1016.3 - 0.0
23/11:00am 15.2 13.9 11.2 77 2.1 SW 9 13 5 7 1016.4 - 0.0
23/10:30am 14.8 12.8 11.4 80 1.8 W 13 20 7 11 1016.8 - 0.0
23/10:00am 14.3 11.4 10.9 80 1.8 WSW 17 20 9 11 1017.0 - 0.0
23/09:54am 14.4 11.9 11.2 81 1.7 WSW 15 20 8 11 1017.1 - 0.0
23/09:30am 14.5 12.6 11.8 84 1.5 W 13 17 7 9 1017.1 - 0.0
23/09:12am 14.5 12.7 12.2 86 1.2 W 13 19 7 10 1017.1 - 0.0
23/09:00am 14.8 13.8 13.3 91 0.8 W 11 17 6 9 1017.0 1016.9 3.6
23/08:30am 13.5 13.2 13.3 99 0.1 WNW 7 11 4 6 1016.7 - 3.6
23/08:00am 12.5 11.9 12.3 99 0.1 WNW 7 11 4 6 1016.7 - 3.6
23/07:30am 11.9 10.7 11.7 99 0.1 NW 9 11 5 6 1016.4 - 3.6
23/07:24am 11.5 10.6 11.3 99 0.1 WNW 7 11 4 6 1016.5 - 3.6
23/07:03am 9.5 8.1 9.4 99 0.0 NW 7 7 4 4 1016.2 - 3.6
23/07:00am 9.8 8.4 9.7 99 0.1 NW 7 9 4 5 1016.2 - 3.6
23/06:53am 10.6 9.4 10.4 99 0.1 NW 7 9 4 5 1016.2 - 3.6
23/06:30am 10.7 10.5 10.5 99 0.1 NW 2 7 1 4 1016.3 - 3.6
23/06:22am 10.6 10.8 10.4 99 0.1 CALM 0 6 0 3 1016.4 - 3.6
23/06:00am 11.1 10.3 10.9 99 0.1 N 6 7 3 4 1016.5 1016.4 3.6
23/05:50am 10.9 10.0 10.7 99 0.1 N 6 7 3 4 1016.4 - 3.6
23/05:30am 10.5 9.5 10.3 99 0.1 N 6 7 3 4 1016.2 - 3.6
23/05:19am 11.0 10.9 10.8 99 0.1 NW 2 6 1 3 1016.1 - 3.6
23/05:00am 11.5 10.8 11.3 99 0.1 NW 6 7 3 4 1016.2 - 3.6
23/04:37am 11.7 10.8 11.5 99 0.1 N 7 9 4 5 1016.2 - 3.6
23/04:30am 11.6 11.3 11.3 98 0.2 NE 4 9 2 5 1016.1 - 3.6
23/04:00am 11.3 11.6 10.8 97 0.3 CALM 0 0 0 0 1016.1 - 3.6
23/03:30am 12.1 12.6 11.5 96 0.3 CALM 0 0 0 0 1016.1 - 3.6
23/03:26am 12.0 12.4 11.4 96 0.3 CALM 0 0 0 0 1016.2 - 3.6
23/03:00am 12.6 13.2 11.8 95 0.4 CALM 0 0 0 0 1016.3 1016.2 3.6
23/02:30am 13.0 13.7 12.1 94 0.5 CALM 0 0 0 0 1016.5 - 3.6
23/02:00am 13.3 14.0 12.2 93 0.6 CALM 0 0 0 0 1016.8 - 3.6
23/01:30am 13.2 13.8 11.8 91 0.7 CALM 0 0 0 0 1017.1 - 3.6
23/01:00am 13.3 13.8 11.7 90 0.9 CALM 0 0 0 0 1017.1 - 3.6
23/12:30am 13.5 13.8 12.1 91 0.8 E 2 6 1 3 1017.3 - 3.6
23/12:00am 13.7 13.2 11.9 89 1.0 E 6 7 3 4 1017.4 1017.3 3.6
 
Date/Time
EST
Temp
°C
App
Temp
°C
Dew
Point
Rel
Hum
%
Delta-T
°C
Wind Press
QNH
hPa
Press
MSL
hPa
Rain
since 9 am
mm
Dir
 
Spd
km/h
Gust
km/h
Spd
kts
Gust
kts
22/11:30pm 13.8 13.0 11.1 84 1.4 SE 6 7 3 4 1017.5 - 3.6
22/11:00pm 14.2 13.3 11.4 83 1.5 SSE 7 11 4 6 1017.8 - 3.6
22/10:30pm 14.2 13.3 11.5 84 1.4 S 7 9 4 5 1018.1 - 3.6
22/10:00pm 14.4 13.7 11.9 85 1.3 S 7 9 4 5 1018.0 - 3.6
22/09:30pm 14.4 13.3 12.1 86 1.2 SE 9 9 5 5 1017.9 - 3.6
22/09:00pm 14.6 14.3 13.3 92 0.7 SSE 7 11 4 6 1017.5 1017.4 3.6
22/08:30pm 14.7 14.7 13.7 94 0.6 SSE 6 6 3 3 1017.4 - 3.6
22/08:00pm 14.8 14.7 13.8 94 0.6 SSE 7 9 4 5 1017.3 - 3.6
22/07:30pm 14.8 14.7 14.0 95 0.5 SE 7 11 4 6 1017.1 - 3.6
22/07:00pm 15.1 15.1 14.3 95 0.5 SE 7 11 4 6 1016.8 - 3.6
22/06:30pm 15.0 16.2 13.9 93 0.6 CALM 0 6 0 3 1016.4 - 3.6
22/06:00pm 14.9 15.1 14.3 96 0.3 W 6 9 3 5 1016.1 1016.0 3.6
22/05:55pm 14.9 15.2 14.4 97 0.3 WNW 6 9 3 5 1016.1 - 3.6
22/05:30pm 14.8 14.5 14.3 97 0.3 N 9 11 5 6 1015.8 - 3.6
22/05:00pm 14.8 14.4 14.0 95 0.5 N 9 13 5 7 1015.4 - 3.6
22/04:30pm 14.9 14.4 13.9 94 0.6 NNW 9 15 5 8 1015.2 - 3.4
22/04:26pm 14.9 14.8 13.8 93 0.6 NNW 7 15 4 8 1015.2 - 3.4
22/04:03pm 15.2 14.5 13.2 88 1.1 WNW 9 13 5 7 1015.2 - 3.4
22/04:00pm 15.3 14.6 13.1 87 1.2 NW 9 13 5 7 1015.2 - 3.2
22/03:57pm 15.3 14.6 13.1 87 1.2 NW 9 13 5 7 1015.1 - 3.0
22/03:30pm 15.9 15.6 12.8 82 1.7 W 6 9 3 5 1015.0 - 3.0
22/03:00pm 16.1 15.6 12.5 79 2.0 NNW 7 11 4 6 1014.6 1014.5 2.8
22/02:30pm 16.1 14.8 12.5 79 2.0 N 11 13 6 7 1014.3 - 2.8
22/02:00pm 16.2 14.6 12.7 80 1.9 N 13 17 7 9 1014.3 - 2.8
22/01:30pm 15.7 14.7 13.5 87 1.2 N 11 15 6 8 1014.2 - 2.8
22/01:00pm 14.9 12.9 12.6 86 1.3 N 15 19 8 10 1014.5 - 2.8
22/12:30pm 15.1 13.0 12.4 84 1.5 N 15 19 8 10 1014.9 - 2.8
22/12:00pm 14.6 12.3 11.9 84 1.5 N 15 19 8 10 1015.2 1015.1 2.4
22/11:30am 14.2 11.2 12.1 87 1.1 N 19 26 10 14 1015.0 - 1.8
22/11:00am 14.5 10.7 11.1 80 1.8 N 22 32 12 17 1015.3 - 1.4
22/10:30am 14.6 9.7 11.4 81 1.7 N 28 33 15 18 1015.0 - 1.2
22/10:00am 14.1 8.2 11.3 83 1.5 N 33 43 18 23 1014.8 - 1.2
22/09:30am 14.1 8.2 11.3 83 1.5 N 33 46 18 25 1014.3 - 0.8
22/09:00am 13.9 7.3 11.2 84 1.4 N 37 46 20 25 1014.3 1014.2 4.8
22/08:30am 13.1 10.3 11.3 89 1.0 N 17 19 9 10 1015.3 - 3.6
22/08:19am 13.0 10.8 10.9 87 1.1 N 13 17 7 9 1015.6 - 3.4
22/08:00am 13.4 11.5 10.4 82 1.6 NNW 11 17 6 9 1015.7 - 2.8
22/07:54am 13.6 11.2 10.0 79 1.9 NW 13 17 7 9 1016.3 - 2.4
22/07:30am 14.2 11.6 9.4 73 2.5 WNW 13 17 7 9 1015.9 - 1.0
22/07:00am 15.6 11.4 8.4 62 3.6 NNW 20 28 11 15 1015.3 - 0.0
22/06:30am 17.4 10.9 6.3 48 5.5 NNW 30 48 16 26 1014.7 - 0.0
22/06:29am 17.4 10.9 6.3 48 5.5 NNW 30 48 16 26 1014.7 - 0.0
22/06:00am 17.9 11.3 6.1 46 5.8 NNW 30 41 16 22 1014.3 1014.2 0.0
22/05:30am 18.2 12.4 6.1 45 6.0 NNW 26 37 14 20 1013.8 - 0.0
22/05:01am 18.8 10.9 6.3 44 6.2 N 37 57 20 31 1013.4 - 0.0
22/05:00am 18.7 11.6 6.2 44 6.2 N 33 46 18 25 1013.4 - 0.0
22/04:30am 18.7 12.4 5.9 43 6.3 N 28 43 15 23 1012.3 - 0.0
22/04:00am 18.9 11.4 6.1 43 6.3 N 35 48 19 26 1011.7 - 0.0
22/03:30am 18.8 10.9 6.0 43 6.3 N 37 50 20 27 1011.3 - 0.0
22/03:06am 18.8 10.5 6.0 43 6.3 N 39 57 21 31 1011.4 - 0.0
22/03:00am 19.0 9.9 5.8 42 6.5 N 43 56 23 30 1011.2 1011.1 0.0
22/02:30am 19.1 10.8 5.9 42 6.5 N 39 61 21 33 1011.4 - 0.0
22/02:24am 19.1 11.1 5.9 42 6.5 N 37 56 20 30 1011.4 - 0.0
22/02:00am 18.7 12.1 6.2 44 6.2 N 30 43 16 23 1011.7 - 0.0
22/01:30am 18.4 10.9 6.3 45 6.0 N 35 46 19 25 1011.7 - 0.0
22/01:00am 17.6 11.4 6.2 47 5.6 N 28 35 15 19 1012.1 - 0.0
22/12:30am 17.3 11.5 6.2 48 5.4 N 26 35 14 19 1012.8 - 0.0
22/12:00am 17.5 11.0 6.4 48 5.5 N 30 39 16 21 1013.1 1013.0 0.0
 
Date/Time
EST
Temp
°C
App
Temp
°C
Dew
Point
Rel
Hum
%
Delta-T
°C
Wind Press
QNH
hPa
Press
MSL
hPa
Rain
since 9 am
mm
Dir
 
Spd
km/h
Gust
km/h
Spd
kts
Gust
kts
21/11:30pm 17.3 10.8 6.5 49 5.3 N 30 39 16 21 1013.2 - 0.0
21/11:00pm 17.2 11.1 6.7 50 5.2 N 28 41 15 22 1013.6 - 0.0
21/10:30pm 17.5 10.7 6.7 49 5.4 N 32 41 17 22 1013.5 - 0.0
21/10:00pm 17.3 10.5 6.8 50 5.2 N 32 44 17 24 1013.8 - 0.0
21/09:30pm 17.4 10.5 6.6 49 5.3 N 32 46 17 25 1013.9 - 0.0
21/09:00pm 17.4 10.4 6.9 50 5.2 N 33 43 18 23 1013.9 1013.8 0.0
21/08:30pm 17.4 10.3 6.6 49 5.3 N 33 44 18 24 1013.9 - 0.0
21/08:00pm 17.3 10.9 6.8 50 5.2 N 30 43 16 23 1013.9 - 0.0
21/07:30pm 17.3 10.3 6.8 50 5.2 N 33 43 18 23 1013.6 - 0.0
21/07:00pm 17.3 10.5 7.1 51 5.1 N 32 46 17 25 1013.8 - 0.0
21/06:30pm 17.3 10.5 6.8 50 5.2 N 32 43 17 23 1013.7 - 0.0
21/06:00pm 17.4 10.4 6.9 50 5.2 N 33 43 18 23 1013.6 1013.5 0.0
21/05:30pm 17.5 11.1 7.0 50 5.2 N 30 39 16 21 1013.5 - 0.0
21/05:00pm 17.8 11.4 7.0 49 5.4 N 30 39 16 21 1013.7 - 0.0
21/04:30pm 18.5 11.1 6.7 46 5.9 N 35 48 19 26 1014.0 - 0.0
21/04:00pm 19.4 9.9 6.5 43 6.5 N 46 65 25 35 1014.0 - 0.0
21/03:30pm 19.6 10.7 6.7 43 6.5 N 43 65 23 35 1014.6 - 0.0
21/03:07pm 19.3 10.6 6.1 42 6.5 N 41 59 22 32 1014.7 - 0.0
21/03:00pm 19.7 11.3 5.7 40 6.9 N 39 54 21 29 1015.1 1015.0 0.0
21/02:32pm 19.1 11.5 5.6 41 6.6 NNW 35 57 19 31 1015.4 - 0.0
21/02:30pm 19.0 11.3 5.5 41 6.6 NNW 35 50 19 27 1015.5 - 0.0
21/02:12pm 18.5 10.8 5.4 42 6.4 N 35 54 19 29 1015.1 - 0.0
21/02:00pm 18.6 10.1 5.1 41 6.5 N 39 52 21 28 1014.9 - 0.0
21/01:32pm 19.2 11.9 5.3 40 6.8 N 33 52 18 28 1014.9 - 0.0
21/01:30pm 19.3 12.1 5.7 41 6.7 N 33 46 18 25 1015.0 - 0.0
21/01:02pm 19.2 11.3 6.0 42 6.5 N 37 56 20 30 1015.4 - 0.0
21/01:00pm 19.2 11.3 6.0 42 6.5 N 37 48 20 26 1015.7 - 0.0
21/12:46pm 19.0 11.0 5.5 41 6.6 N 37 57 20 31 1015.8 - 0.0
21/12:30pm 20.1 12.2 6.1 40 7.0 N 37 52 20 28 1016.2 - 0.0
21/12:12pm 19.6 12.0 6.0 41 6.7 N 35 54 19 29 1016.4 - 0.0
21/12:00pm 18.8 9.9 5.3 41 6.6 N 41 54 22 29 1016.6 1016.5 0.0
21/11:30am 18.6 9.3 5.1 41 6.5 N 43 57 23 31 1017.2 - 0.0
21/11:23am 18.9 10.8 5.4 41 6.6 N 37 57 20 31 1017.3 - 0.0
21/11:00am 19.0 11.9 6.5 44 6.2 N 33 46 18 25 1017.7 - 0.0
21/10:30am 18.1 10.2 6.0 45 5.9 N 37 57 20 31 1018.2 - 0.0
21/10:23am 17.3 9.1 4.9 44 5.9 N 37 57 20 31 1018.1 - 0.0
21/10:00am 17.4 10.3 5.4 45 5.8 N 32 44 17 24 1018.3 - 0.0
21/09:30am 16.2 9.1 5.5 49 5.1 N 32 41 17 22 1018.7 - 0.0
21/09:00am 15.6 10.1 5.8 52 4.7 N 24 33 13 18 1018.8 1018.7 0.0
21/08:30am 14.3 9.2 5.9 57 4.0 N 22 30 12 16 1018.8 - 0.0
21/08:00am 13.4 8.2 5.6 59 3.7 N 22 28 12 15 1018.6 - 0.0
21/07:30am 12.9 8.0 5.3 60 3.5 N 20 26 11 14 1018.7 - 0.0
21/07:00am 12.9 8.0 5.1 59 3.6 N 20 26 11 14 1018.3 - 0.0
21/06:30am 12.8 7.9 5.2 60 3.5 N 20 30 11 16 1018.3 - 0.0
21/06:00am 12.8 7.5 5.2 60 3.5 N 22 30 12 16 1017.9 1017.8 0.0
21/05:30am 12.6 7.7 5.3 61 3.4 N 20 28 11 15 1018.1 - 0.0
21/05:00am 12.7 7.9 5.4 61 3.4 N 20 24 11 13 1018.0 - 0.0
21/04:30am 12.6 7.4 5.5 62 3.3 N 22 28 12 15 1017.7 - 0.0
21/04:00am 11.8 7.2 5.4 65 3.0 N 19 24 10 13 1017.8 - 0.0
21/03:30am 12.0 8.2 5.6 65 3.0 N 15 17 8 9 1017.8 - 0.0
21/03:00am 11.9 7.1 5.5 65 3.0 N 20 24 11 13 1017.7 1017.6 0.0
21/02:30am 12.0 7.2 5.4 64 3.1 N 20 26 11 14 1017.6 - 0.0
21/02:00am 12.3 7.5 5.7 64 3.1 N 20 24 11 13 1017.8 - 0.0
21/01:30am 12.4 7.8 5.6 63 3.2 N 19 24 10 13 1017.7 - 0.0
21/01:00am 12.6 8.0 5.8 63 3.2 N 19 26 10 14 1017.8 - 0.0
21/12:30am 12.7 7.9 5.8 63 3.2 N 20 26 11 14 1017.6 - 0.0
21/12:00am 13.0 8.5 5.9 62 3.3 N 19 24 10 13 1017.7 1017.6 0.0
 
Date/Time
EST
Temp
°C
App
Temp
°C
Dew
Point
Rel
Hum
%
Delta-T
°C
Wind Press
QNH
hPa
Press
MSL
hPa
Rain
since 9 am
mm
Dir
 
Spd
km/h
Gust
km/h
Spd
kts
Gust
kts
20/11:30pm 13.0 8.5 5.9 62 3.3 N 19 24 10 13 1017.8 - 0.0
20/11:00pm 13.5 9.0 6.1 61 3.5 N 19 24 10 13 1017.9 - 0.0
20/10:30pm 14.0 9.6 6.4 60 3.7 N 19 22 10 12 1018.1 - 0.0
20/10:00pm 14.2 9.6 6.3 59 3.8 N 20 24 11 13 1018.1 - 0.0
20/09:30pm 14.1 9.5 6.5 60 3.7 N 20 26 11 14 1018.0 - 0.0
20/09:00pm 14.3 9.3 6.4 59 3.8 N 22 26 12 14 1017.9 1017.8 0.0
20/08:30pm 14.5 9.9 6.6 59 3.8 N 20 26 11 14 1017.9 - 0.0
20/08:00pm 14.7 10.2 6.8 59 3.8 N 20 30 11 16 1017.8 - 0.0
20/07:30pm 14.7 10.4 6.8 59 3.8 N 19 22 10 12 1017.7 - 0.0
20/07:00pm 14.7 10.7 6.8 59 3.8 N 17 20 9 11 1017.4 - 0.0
20/06:30pm 14.8 11.2 6.6 58 4.0 N 15 20 8 11 1017.1 - 0.0

Other Formats:

Comma delimited format used in spreadsheet applications
http://www.bom.gov.au/fwo/IDV60801/IDV60801.94870.axf

JavaScript Object Notation format (JSON) in row-major order
http://www.bom.gov.au/fwo/IDV60801/IDV60801.94870.json